sensor_id;sensor_type;location;lat;lon;timestamp;P1;durP1;ratioP1;P2;durP2;ratioP2
29236;SDS011;16266;50.866;4.398;2023-06-26T00:01:59;474.33;;;450.83;;
29236;SDS011;16266;50.866;4.398;2023-06-26T00:04:24;487.52;;;464.40;;
29236;SDS011;16266;50.866;4.398;2023-06-26T00:06:50;491.58;;;468.33;;
29236;SDS011;16266;50.866;4.398;2023-06-26T00:09:16;498.02;;;473.73;;
29236;SDS011;16266;50.866;4.398;2023-06-26T00:11:41;490.75;;;466.05;;
29236;SDS011;16266;50.866;4.398;2023-06-26T00:14:07;461.95;;;438.08;;
29236;SDS011;16266;50.866;4.398;2023-06-26T00:16:33;447.30;;;423.92;;
29236;SDS011;16266;50.866;4.398;2023-06-26T00:18:58;323.25;;;307.75;;
29236;SDS011;16266;50.866;4.398;2023-06-26T00:21:24;322.17;;;308.25;;
29236;SDS011;16266;50.866;4.398;2023-06-26T00:23:50;319.88;;;305.98;;
29236;SDS011;16266;50.866;4.398;2023-06-26T00:26:16;304.45;;;291.30;;
29236;SDS011;16266;50.866;4.398;2023-06-26T00:28:42;313.08;;;299.60;;
29236;SDS011;16266;50.866;4.398;2023-06-26T00:31:08;492.85;;;469.42;;
29236;SDS011;16266;50.866;4.398;2023-06-26T00:33:33;526.15;;;500.42;;
29236;SDS011;16266;50.866;4.398;2023-06-26T00:35:59;538.78;;;511.75;;
29236;SDS011;16266;50.866;4.398;2023-06-26T00:38:25;444.17;;;423.95;;
29236;SDS011;16266;50.866;4.398;2023-06-26T00:40:50;374.20;;;358.45;;
29236;SDS011;16266;50.866;4.398;2023-06-26T00:43:16;244.95;;;235.15;;
29236;SDS011;16266;50.866;4.398;2023-06-26T00:45:42;196.82;;;189.10;;
29236;SDS011;16266;50.866;4.398;2023-06-26T00:48:07;156.52;;;150.25;;
29236;SDS011;16266;50.866;4.398;2023-06-26T00:50:37;336.00;;;321.45;;
29236;SDS011;16266;50.866;4.398;2023-06-26T00:53:03;429.30;;;409.75;;
29236;SDS011;16266;50.866;4.398;2023-06-26T00:55:29;334.10;;;319.45;;
29236;SDS011;16266;50.866;4.398;2023-06-26T00:57:55;396.02;;;377.67;;
29236;SDS011;16266;50.866;4.398;2023-06-26T01:00:21;448.67;;;425.98;;
29236;SDS011;16266;50.866;4.398;2023-06-26T01:02:47;439.02;;;417.80;;
29236;SDS011;16266;50.866;4.398;2023-06-26T01:05:13;396.52;;;378.63;;
29236;SDS011;16266;50.866;4.398;2023-06-26T01:07:46;357.35;;;341.52;;
29236;SDS011;16266;50.866;4.398;2023-06-26T01:10:13;334.48;;;319.38;;
29236;SDS011;16266;50.866;4.398;2023-06-26T01:12:39;303.67;;;290.08;;
29236;SDS011;16266;50.866;4.398;2023-06-26T01:15:05;340.55;;;324.80;;
29236;SDS011;16266;50.866;4.398;2023-06-26T01:17:31;305.30;;;291.67;;
29236;SDS011;16266;50.866;4.398;2023-06-26T01:20:00;300.80;;;287.08;;
29236;SDS011;16266;50.866;4.398;2023-06-26T01:22:41;307.08;;;292.80;;
29236;SDS011;16266;50.866;4.398;2023-06-26T01:25:21;328.92;;;312.95;;
29236;SDS011;16266;50.866;4.398;2023-06-26T01:28:03;309.85;;;295.15;;
29236;SDS011;16266;50.866;4.398;2023-06-26T01:30:31;334.20;;;318.85;;
29236;SDS011;16266;50.866;4.398;2023-06-26T01:32:58;369.13;;;352.30;;
29236;SDS011;16266;50.866;4.398;2023-06-26T01:35:25;405.63;;;386.40;;
29236;SDS011;16266;50.866;4.398;2023-06-26T01:37:51;436.23;;;415.92;;
29236;SDS011;16266;50.866;4.398;2023-06-26T01:40:17;492.45;;;467.35;;
29236;SDS011;16266;50.866;4.398;2023-06-26T01:42:43;539.25;;;510.38;;
29236;SDS011;16266;50.866;4.398;2023-06-26T01:45:21;568.90;;;536.95;;
29236;SDS011;16266;50.866;4.398;2023-06-26T01:47:50;565.53;;;534.00;;
29236;SDS011;16266;50.866;4.398;2023-06-26T01:50:18;610.13;;;575.17;;
29236;SDS011;16266;50.866;4.398;2023-06-26T01:58:06;768.35;;;719.25;;
29236;SDS011;16266;50.866;4.398;2023-06-26T02:00:33;762.80;;;714.42;;
29236;SDS011;16266;50.866;4.398;2023-06-26T02:02:59;805.78;;;753.20;;
29236;SDS011;16266;50.866;4.398;2023-06-26T02:05:25;798.75;;;747.03;;
29236;SDS011;16266;50.866;4.398;2023-06-26T02:07:51;794.00;;;743.35;;
29236;SDS011;16266;50.866;4.398;2023-06-26T02:10:17;782.85;;;731.53;;
29236;SDS011;16266;50.866;4.398;2023-06-26T02:12:43;758.58;;;708.30;;
29236;SDS011;16266;50.866;4.398;2023-06-26T02:15:09;757.50;;;707.70;;
29236;SDS011;16266;50.866;4.398;2023-06-26T02:17:40;689.58;;;644.97;;
29236;SDS011;16266;50.866;4.398;2023-06-26T02:20:06;639.55;;;601.42;;
29236;SDS011;16266;50.866;4.398;2023-06-26T02:22:34;603.13;;;569.67;;
29236;SDS011;16266;50.866;4.398;2023-06-26T02:25:00;619.05;;;584.85;;
29236;SDS011;16266;50.866;4.398;2023-06-26T02:27:25;563.67;;;532.83;;
29236;SDS011;16266;50.866;4.398;2023-06-26T02:29:57;566.22;;;534.72;;
29236;SDS011;16266;50.866;4.398;2023-06-26T02:32:23;636.22;;;598.42;;
29236;SDS011;16266;50.866;4.398;2023-06-26T02:34:48;635.17;;;599.80;;
29236;SDS011;16266;50.866;4.398;2023-06-26T02:37:17;736.40;;;689.65;;
29236;SDS011;16266;50.866;4.398;2023-06-26T02:39:43;772.70;;;721.97;;
29236;SDS011;16266;50.866;4.398;2023-06-26T02:42:08;810.60;;;758.40;;
29236;SDS011;16266;50.866;4.398;2023-06-26T02:44:34;729.38;;;685.92;;
29236;SDS011;16266;50.866;4.398;2023-06-26T02:47:00;703.33;;;658.85;;
29236;SDS011;16266;50.866;4.398;2023-06-26T02:49:25;668.33;;;626.80;;
29236;SDS011;16266;50.866;4.398;2023-06-26T02:51:51;665.30;;;625.40;;
29236;SDS011;16266;50.866;4.398;2023-06-26T02:54:17;675.38;;;635.30;;
29236;SDS011;16266;50.866;4.398;2023-06-26T02:56:42;752.65;;;705.03;;
29236;SDS011;16266;50.866;4.398;2023-06-26T02:59:08;769.58;;;719.75;;
29236;SDS011;16266;50.866;4.398;2023-06-26T03:01:33;655.22;;;616.78;;
29236;SDS011;16266;50.866;4.398;2023-06-26T03:03:59;760.67;;;706.90;;
29236;SDS011;16266;50.866;4.398;2023-06-26T03:06:26;750.63;;;697.17;;
29236;SDS011;16266;50.866;4.398;2023-06-26T03:08:52;788.60;;;732.97;;
29236;SDS011;16266;50.866;4.398;2023-06-26T03:11:19;755.25;;;704.47;;
29236;SDS011;16266;50.866;4.398;2023-06-26T03:13:44;803.25;;;746.53;;
29236;SDS011;16266;50.866;4.398;2023-06-26T03:16:10;858.83;;;800.63;;
29236;SDS011;16266;50.866;4.398;2023-06-26T03:18:36;803.10;;;752.13;;
29236;SDS011;16266;50.866;4.398;2023-06-26T03:21:01;829.70;;;768.80;;
29236;SDS011;16266;50.866;4.398;2023-06-26T03:23:27;832.17;;;772.92;;
29236;SDS011;16266;50.866;4.398;2023-06-26T03:25:53;798.13;;;740.80;;
29236;SDS011;16266;50.866;4.398;2023-06-26T03:28:19;729.65;;;681.17;;
29236;SDS011;16266;50.866;4.398;2023-06-26T03:30:44;787.33;;;732.50;;
29236;SDS011;16266;50.866;4.398;2023-06-26T03:33:10;799.88;;;741.38;;
29236;SDS011;16266;50.866;4.398;2023-06-26T03:35:36;801.25;;;744.25;;
29236;SDS011;16266;50.866;4.398;2023-06-26T03:38:03;853.47;;;794.97;;
29236;SDS011;16266;50.866;4.398;2023-06-26T03:40:29;917.88;;;851.75;;
29236;SDS011;16266;50.866;4.398;2023-06-26T03:42:55;1186.68;;;887.55;;
29236;SDS011;16266;50.866;4.398;2023-06-26T03:45:20;930.85;;;863.33;;
29236;SDS011;16266;50.866;4.398;2023-06-26T03:47:46;1191.15;;;891.47;;
29236;SDS011;16266;50.866;4.398;2023-06-26T03:50:14;1999.90;;;999.90;;
29236;SDS011;16266;50.866;4.398;2023-06-26T03:52:43;1155.18;;;861.25;;
29236;SDS011;16266;50.866;4.398;2023-06-26T03:55:09;854.28;;;798.15;;
29236;SDS011;16266;50.866;4.398;2023-06-26T03:57:34;806.22;;;753.47;;
29236;SDS011;16266;50.866;4.398;2023-06-26T04:00:00;803.40;;;750.53;;
29236;SDS011;16266;50.866;4.398;2023-06-26T04:02:26;777.85;;;727.28;;
29236;SDS011;16266;50.866;4.398;2023-06-26T04:04:52;727.30;;;681.65;;
29236;SDS011;16266;50.866;4.398;2023-06-26T04:07:18;797.35;;;744.33;;
29236;SDS011;16266;50.866;4.398;2023-06-26T04:09:44;907.30;;;841.67;;
29236;SDS011;16266;50.866;4.398;2023-06-26T04:12:10;964.80;;;893.40;;
29236;SDS011;16266;50.866;4.398;2023-06-26T04:14:36;975.95;;;903.50;;
29236;SDS011;16266;50.866;4.398;2023-06-26T04:17:01;909.97;;;846.17;;
29236;SDS011;16266;50.866;4.398;2023-06-26T04:19:28;744.70;;;701.30;;
29236;SDS011;16266;50.866;4.398;2023-06-26T04:21:54;661.42;;;618.60;;
29236;SDS011;16266;50.866;4.398;2023-06-26T04:24:20;682.70;;;639.35;;
29236;SDS011;16266;50.866;4.398;2023-06-26T04:26:46;666.80;;;625.90;;
29236;SDS011;16266;50.866;4.398;2023-06-26T04:29:11;760.10;;;711.17;;
29236;SDS011;16266;50.866;4.398;2023-06-26T04:31:38;689.85;;;649.85;;
29236;SDS011;16266;50.866;4.398;2023-06-26T04:34:04;607.60;;;577.10;;
29236;SDS011;16266;50.866;4.398;2023-06-26T04:36:29;432.90;;;411.58;;
29236;SDS011;16266;50.866;4.398;2023-06-26T04:38:56;538.63;;;512.15;;
29236;SDS011;16266;50.866;4.398;2023-06-26T04:41:22;277.90;;;265.52;;
29236;SDS011;16266;50.866;4.398;2023-06-26T04:43:48;497.17;;;472.23;;
29236;SDS011;16266;50.866;4.398;2023-06-26T04:46:14;509.30;;;483.42;;
29236;SDS011;16266;50.866;4.398;2023-06-26T04:48:42;766.97;;;711.50;;
29236;SDS011;16266;50.866;4.398;2023-06-26T04:51:09;518.75;;;487.58;;
29236;SDS011;16266;50.866;4.398;2023-06-26T04:53:35;540.42;;;510.58;;
29236;SDS011;16266;50.866;4.398;2023-06-26T04:56:01;497.25;;;469.75;;
29236;SDS011;16266;50.866;4.398;2023-06-26T04:58:27;607.42;;;571.75;;
29236;SDS011;16266;50.866;4.398;2023-06-26T05:00:53;559.58;;;526.20;;
29236;SDS011;16266;50.866;4.398;2023-06-26T05:03:18;636.38;;;600.65;;
29236;SDS011;16266;50.866;4.398;2023-06-26T05:05:44;546.78;;;519.65;;
29236;SDS011;16266;50.866;4.398;2023-06-26T05:08:15;478.67;;;455.65;;
29236;SDS011;16266;50.866;4.398;2023-06-26T05:10:42;478.15;;;456.20;;
29236;SDS011;16266;50.866;4.398;2023-06-26T05:13:09;467.25;;;445.33;;
29236;SDS011;16266;50.866;4.398;2023-06-26T05:18:03;347.02;;;331.48;;
29236;SDS011;16266;50.866;4.398;2023-06-26T05:23:05;580.33;;;551.88;;
29236;SDS011;16266;50.866;4.398;2023-06-26T05:25:31;354.23;;;338.35;;
29236;SDS011;16266;50.866;4.398;2023-06-26T05:27:59;191.45;;;183.35;;
29236;SDS011;16266;50.866;4.398;2023-06-26T05:30:27;252.40;;;242.05;;
29236;SDS011;16266;50.866;4.398;2023-06-26T05:32:53;78.80;;;75.78;;
29236;SDS011;16266;50.866;4.398;2023-06-26T05:35:22;176.60;;;169.80;;
29236;SDS011;16266;50.866;4.398;2023-06-26T05:37:49;105.95;;;101.97;;
29236;SDS011;16266;50.866;4.398;2023-06-26T05:40:16;421.08;;;403.42;;
29236;SDS011;16266;50.866;4.398;2023-06-26T05:42:42;620.33;;;591.78;;
29236;SDS011;16266;50.866;4.398;2023-06-26T05:45:09;126.50;;;121.43;;
29236;SDS011;16266;50.866;4.398;2023-06-26T05:47:36;86.10;;;82.72;;
29236;SDS011;16266;50.866;4.398;2023-06-26T05:50:02;107.97;;;103.72;;
29236;SDS011;16266;50.866;4.398;2023-06-26T05:52:29;447.35;;;428.20;;
29236;SDS011;16266;50.866;4.398;2023-06-26T05:54:55;235.23;;;225.55;;
29236;SDS011;16266;50.866;4.398;2023-06-26T05:59:53;103.00;;;98.70;;
29236;SDS011;16266;50.866;4.398;2023-06-26T06:02:19;48.45;;;46.65;;
29236;SDS011;16266;50.866;4.398;2023-06-26T06:04:45;34.83;;;33.53;;
29236;SDS011;16266;50.866;4.398;2023-06-26T06:07:11;41.47;;;39.85;;
29236;SDS011;16266;50.866;4.398;2023-06-26T06:09:37;102.10;;;97.75;;
29236;SDS011;16266;50.866;4.398;2023-06-26T06:12:04;180.73;;;173.00;;
29236;SDS011;16266;50.866;4.398;2023-06-26T06:14:30;229.80;;;220.65;;
29236;SDS011;16266;50.866;4.398;2023-06-26T06:17:00;209.10;;;200.90;;
29236;SDS011;16266;50.866;4.398;2023-06-26T06:19:25;163.10;;;156.40;;
29236;SDS011;16266;50.866;4.398;2023-06-26T06:21:51;167.43;;;159.90;;
29236;SDS011;16266;50.866;4.398;2023-06-26T06:24:17;105.70;;;101.43;;
29236;SDS011;16266;50.866;4.398;2023-06-26T06:26:43;135.25;;;128.48;;
29236;SDS011;16266;50.866;4.398;2023-06-26T06:29:09;203.05;;;194.32;;
29236;SDS011;16266;50.866;4.398;2023-06-26T06:31:35;213.77;;;205.57;;
29236;SDS011;16266;50.866;4.398;2023-06-26T06:34:00;194.73;;;186.82;;
29236;SDS011;16266;50.866;4.398;2023-06-26T06:36:26;176.32;;;169.27;;
29236;SDS011;16266;50.866;4.398;2023-06-26T06:38:52;85.95;;;82.50;;
29236;SDS011;16266;50.866;4.398;2023-06-26T06:41:18;42.38;;;39.88;;
29236;SDS011;16266;50.866;4.398;2023-06-26T06:43:45;31.15;;;29.63;;
29236;SDS011;16266;50.866;4.398;2023-06-26T06:46:11;32.15;;;30.50;;
29236;SDS011;16266;50.866;4.398;2023-06-26T06:48:36;34.08;;;32.67;;
29236;SDS011;16266;50.866;4.398;2023-06-26T06:51:02;32.97;;;31.70;;
29236;SDS011;16266;50.866;4.398;2023-06-26T06:53:28;30.45;;;29.15;;
29236;SDS011;16266;50.866;4.398;2023-06-26T06:55:54;30.65;;;28.85;;
29236;SDS011;16266;50.866;4.398;2023-06-26T06:58:19;31.35;;;30.05;;
29236;SDS011;16266;50.866;4.398;2023-06-26T07:00:45;29.15;;;27.60;;
29236;SDS011;16266;50.866;4.398;2023-06-26T07:03:11;23.65;;;22.65;;
29236;SDS011;16266;50.866;4.398;2023-06-26T07:05:37;25.13;;;23.80;;
29236;SDS011;16266;50.866;4.398;2023-06-26T07:08:03;27.13;;;25.50;;
29236;SDS011;16266;50.866;4.398;2023-06-26T07:10:29;27.17;;;25.70;;
29236;SDS011;16266;50.866;4.398;2023-06-26T07:12:54;27.92;;;26.85;;
29236;SDS011;16266;50.866;4.398;2023-06-26T07:15:20;28.17;;;27.17;;
29236;SDS011;16266;50.866;4.398;2023-06-26T07:17:46;32.75;;;31.33;;
29236;SDS011;16266;50.866;4.398;2023-06-26T07:20:11;32.17;;;30.38;;
29236;SDS011;16266;50.866;4.398;2023-06-26T07:22:40;32.08;;;30.48;;
29236;SDS011;16266;50.866;4.398;2023-06-26T07:25:07;39.08;;;37.42;;
29236;SDS011;16266;50.866;4.398;2023-06-26T07:27:38;56.20;;;53.80;;
29236;SDS011;16266;50.866;4.398;2023-06-26T07:30:05;68.60;;;65.40;;
29236;SDS011;16266;50.866;4.398;2023-06-26T07:32:31;75.18;;;72.20;;
29236;SDS011;16266;50.866;4.398;2023-06-26T07:34:56;86.43;;;83.13;;
29236;SDS011;16266;50.866;4.398;2023-06-26T07:37:22;99.22;;;94.50;;
29236;SDS011;16266;50.866;4.398;2023-06-26T07:39:48;100.60;;;96.47;;
29236;SDS011;16266;50.866;4.398;2023-06-26T07:42:14;94.10;;;90.13;;
29236;SDS011;16266;50.866;4.398;2023-06-26T07:44:41;93.95;;;90.22;;
29236;SDS011;16266;50.866;4.398;2023-06-26T07:47:07;101.63;;;96.57;;
29236;SDS011;16266;50.866;4.398;2023-06-26T07:49:33;90.00;;;86.03;;
29236;SDS011;16266;50.866;4.398;2023-06-26T07:51:59;84.13;;;80.75;;
29236;SDS011;16266;50.866;4.398;2023-06-26T07:54:24;71.43;;;68.65;;
29236;SDS011;16266;50.866;4.398;2023-06-26T07:56:54;78.43;;;75.22;;
29236;SDS011;16266;50.866;4.398;2023-06-26T07:59:24;72.90;;;69.80;;
29236;SDS011;16266;50.866;4.398;2023-06-26T08:01:51;62.85;;;60.00;;
29236;SDS011;16266;50.866;4.398;2023-06-26T08:04:22;63.95;;;61.55;;
29236;SDS011;16266;50.866;4.398;2023-06-26T08:06:49;57.65;;;55.33;;
29236;SDS011;16266;50.866;4.398;2023-06-26T08:09:16;62.50;;;59.60;;
29236;SDS011;16266;50.866;4.398;2023-06-26T08:11:43;58.58;;;56.40;;
29236;SDS011;16266;50.866;4.398;2023-06-26T08:14:08;53.35;;;51.38;;
29236;SDS011;16266;50.866;4.398;2023-06-26T08:16:34;61.25;;;58.55;;
29236;SDS011;16266;50.866;4.398;2023-06-26T08:19:00;58.92;;;56.20;;
29236;SDS011;16266;50.866;4.398;2023-06-26T08:21:26;53.40;;;50.63;;
29236;SDS011;16266;50.866;4.398;2023-06-26T08:23:51;45.40;;;43.67;;
29236;SDS011;16266;50.866;4.398;2023-06-26T08:26:17;35.97;;;34.67;;
29236;SDS011;16266;50.866;4.398;2023-06-26T08:28:43;35.10;;;33.80;;
29236;SDS011;16266;50.866;4.398;2023-06-26T08:31:08;30.20;;;29.10;;
29236;SDS011;16266;50.866;4.398;2023-06-26T08:33:34;30.92;;;29.70;;
29236;SDS011;16266;50.866;4.398;2023-06-26T08:36:00;26.52;;;25.52;;
29236;SDS011;16266;50.866;4.398;2023-06-26T08:38:25;27.65;;;26.73;;
29236;SDS011;16266;50.866;4.398;2023-06-26T08:40:51;29.27;;;28.08;;
29236;SDS011;16266;50.866;4.398;2023-06-26T08:43:17;28.48;;;27.52;;
29236;SDS011;16266;50.866;4.398;2023-06-26T08:45:43;29.48;;;28.40;;
29236;SDS011;16266;50.866;4.398;2023-06-26T08:48:10;33.40;;;32.25;;
29236;SDS011;16266;50.866;4.398;2023-06-26T08:50:35;31.02;;;29.33;;
29236;SDS011;16266;50.866;4.398;2023-06-26T08:55:34;30.50;;;29.50;;
29236;SDS011;16266;50.866;4.398;2023-06-26T08:58:03;29.98;;;28.88;;
29236;SDS011;16266;50.866;4.398;2023-06-26T09:00:29;24.67;;;23.77;;
29236;SDS011;16266;50.866;4.398;2023-06-26T09:02:56;25.95;;;24.95;;
29236;SDS011;16266;50.866;4.398;2023-06-26T09:05:22;26.10;;;25.30;;
29236;SDS011;16266;50.866;4.398;2023-06-26T09:07:47;26.48;;;25.55;;
29236;SDS011;16266;50.866;4.398;2023-06-26T09:10:13;28.27;;;27.15;;
29236;SDS011;16266;50.866;4.398;2023-06-26T09:12:39;26.85;;;25.95;;
29236;SDS011;16266;50.866;4.398;2023-06-26T09:15:06;29.00;;;27.75;;
29236;SDS011;16266;50.866;4.398;2023-06-26T09:17:38;31.45;;;30.42;;
29236;SDS011;16266;50.866;4.398;2023-06-26T09:20:07;33.28;;;31.95;;
29236;SDS011;16266;50.866;4.398;2023-06-26T09:22:34;29.90;;;28.90;;
29236;SDS011;16266;50.866;4.398;2023-06-26T09:25:04;29.25;;;27.92;;
29236;SDS011;16266;50.866;4.398;2023-06-26T09:27:30;25.90;;;25.00;;
29236;SDS011;16266;50.866;4.398;2023-06-26T09:29:56;26.13;;;25.17;;
29236;SDS011;16266;50.866;4.398;2023-06-26T09:32:26;25.80;;;24.90;;
29236;SDS011;16266;50.866;4.398;2023-06-26T09:34:53;28.90;;;27.63;;
29236;SDS011;16266;50.866;4.398;2023-06-26T09:37:21;27.83;;;26.73;;
29236;SDS011;16266;50.866;4.398;2023-06-26T09:39:48;25.20;;;24.33;;
29236;SDS011;16266;50.866;4.398;2023-06-26T09:42:15;26.40;;;25.50;;
29236;SDS011;16266;50.866;4.398;2023-06-26T09:44:44;29.50;;;28.40;;
29236;SDS011;16266;50.866;4.398;2023-06-26T09:47:11;27.02;;;25.63;;
29236;SDS011;16266;50.866;4.398;2023-06-26T09:49:46;28.75;;;27.25;;
29236;SDS011;16266;50.866;4.398;2023-06-26T09:52:15;27.08;;;26.05;;
29236;SDS011;16266;50.866;4.398;2023-06-26T09:54:42;26.00;;;25.10;;
29236;SDS011;16266;50.866;4.398;2023-06-26T09:59:45;25.85;;;24.95;;
29236;SDS011;16266;50.866;4.398;2023-06-26T10:02:11;24.45;;;23.60;;
29236;SDS011;16266;50.866;4.398;2023-06-26T10:04:37;24.83;;;23.92;;
29236;SDS011;16266;50.866;4.398;2023-06-26T10:07:07;23.98;;;22.98;;
29236;SDS011;16266;50.866;4.398;2023-06-26T10:09:36;25.13;;;24.30;;
29236;SDS011;16266;50.866;4.398;2023-06-26T10:12:19;28.67;;;27.67;;
29236;SDS011;16266;50.866;4.398;2023-06-26T10:14:48;28.05;;;27.08;;
29236;SDS011;16266;50.866;4.398;2023-06-26T10:17:16;26.42;;;25.33;;
29236;SDS011;16266;50.866;4.398;2023-06-26T10:19:48;23.52;;;22.52;;
29236;SDS011;16266;50.866;4.398;2023-06-26T10:22:20;33.17;;;31.73;;
29236;SDS011;16266;50.866;4.398;2023-06-26T10:24:49;23.10;;;22.20;;
29236;SDS011;16266;50.866;4.398;2023-06-26T10:27:18;24.30;;;22.75;;
29236;SDS011;16266;50.866;4.398;2023-06-26T10:29:49;22.75;;;21.50;;
29236;SDS011;16266;50.866;4.398;2023-06-26T10:32:20;24.27;;;23.33;;
29236;SDS011;16266;50.866;4.398;2023-06-26T10:34:49;27.48;;;26.15;;
29236;SDS011;16266;50.866;4.398;2023-06-26T10:37:16;27.90;;;26.70;;
29236;SDS011;16266;50.866;4.398;2023-06-26T10:39:48;22.60;;;21.80;;
29236;SDS011;16266;50.866;4.398;2023-06-26T10:42:18;33.25;;;31.77;;
29236;SDS011;16266;50.866;4.398;2023-06-26T10:47:11;28.27;;;26.98;;
29236;SDS011;16266;50.866;4.398;2023-06-26T10:49:53;29.00;;;27.38;;
29236;SDS011;16266;50.866;4.398;2023-06-26T10:52:19;27.88;;;26.88;;
29236;SDS011;16266;50.866;4.398;2023-06-26T10:54:45;32.38;;;30.88;;
29236;SDS011;16266;50.866;4.398;2023-06-26T10:57:10;34.72;;;33.35;;
29236;SDS011;16266;50.866;4.398;2023-06-26T10:59:38;35.13;;;33.55;;
29236;SDS011;16266;50.866;4.398;2023-06-26T11:02:05;28.85;;;27.65;;
29236;SDS011;16266;50.866;4.398;2023-06-26T11:04:46;35.35;;;33.60;;
29236;SDS011;16266;50.866;4.398;2023-06-26T11:07:22;31.02;;;29.60;;
29236;SDS011;16266;50.866;4.398;2023-06-26T11:09:58;30.73;;;29.67;;
29236;SDS011;16266;50.866;4.398;2023-06-26T11:12:41;30.15;;;28.77;;
29236;SDS011;16266;50.866;4.398;2023-06-26T11:17:40;30.42;;;29.02;;
29236;SDS011;16266;50.866;4.398;2023-06-26T11:20:07;26.15;;;24.85;;
29236;SDS011;16266;50.866;4.398;2023-06-26T11:22:34;22.88;;;22.05;;
29236;SDS011;16266;50.866;4.398;2023-06-26T11:25:02;21.60;;;20.63;;
29236;SDS011;16266;50.866;4.398;2023-06-26T11:27:32;29.02;;;27.83;;
29236;SDS011;16266;50.866;4.398;2023-06-26T11:30:06;26.33;;;25.35;;
29236;SDS011;16266;50.866;4.398;2023-06-26T11:32:39;25.27;;;24.05;;
29236;SDS011;16266;50.866;4.398;2023-06-26T11:35:05;30.37;;;29.03;;
29236;SDS011;16266;50.866;4.398;2023-06-26T11:37:31;30.60;;;29.40;;
29236;SDS011;16266;50.866;4.398;2023-06-26T11:39:58;28.85;;;27.35;;
29236;SDS011;16266;50.866;4.398;2023-06-26T11:42:24;27.42;;;25.13;;
29236;SDS011;16266;50.866;4.398;2023-06-26T11:44:50;25.25;;;24.15;;
29236;SDS011;16266;50.866;4.398;2023-06-26T11:47:18;22.55;;;21.58;;
29236;SDS011;16266;50.866;4.398;2023-06-26T11:49:45;22.27;;;21.08;;
29236;SDS011;16266;50.866;4.398;2023-06-26T11:52:11;22.23;;;21.02;;
29236;SDS011;16266;50.866;4.398;2023-06-26T11:54:37;22.33;;;21.45;;
29236;SDS011;16266;50.866;4.398;2023-06-26T11:57:04;21.75;;;20.88;;
29236;SDS011;16266;50.866;4.398;2023-06-26T11:59:36;26.98;;;24.95;;
29236;SDS011;16266;50.866;4.398;2023-06-26T12:02:10;24.38;;;23.23;;
29236;SDS011;16266;50.866;4.398;2023-06-26T12:04:38;24.05;;;23.10;;
29236;SDS011;16266;50.866;4.398;2023-06-26T12:07:06;22.77;;;21.83;;
29236;SDS011;16266;50.866;4.398;2023-06-26T12:09:34;23.08;;;21.25;;
29236;SDS011;16266;50.866;4.398;2023-06-26T12:12:11;21.88;;;20.73;;
29236;SDS011;16266;50.866;4.398;2023-06-26T12:14:38;23.73;;;22.30;;
29236;SDS011;16266;50.866;4.398;2023-06-26T12:17:09;25.85;;;24.20;;
29236;SDS011;16266;50.866;4.398;2023-06-26T12:19:37;20.58;;;19.60;;
29236;SDS011;16266;50.866;4.398;2023-06-26T12:22:07;24.05;;;22.73;;
29236;SDS011;16266;50.866;4.398;2023-06-26T12:24:35;23.15;;;22.08;;
29236;SDS011;16266;50.866;4.398;2023-06-26T12:29:32;25.67;;;24.05;;
29236;SDS011;16266;50.866;4.398;2023-06-26T12:31:58;25.45;;;24.00;;
29236;SDS011;16266;50.866;4.398;2023-06-26T12:34:28;20.63;;;19.77;;
29236;SDS011;16266;50.866;4.398;2023-06-26T12:37:03;22.58;;;21.77;;
29236;SDS011;16266;50.866;4.398;2023-06-26T12:39:46;28.52;;;26.00;;
29236;SDS011;16266;50.866;4.398;2023-06-26T12:42:26;23.75;;;22.35;;
29236;SDS011;16266;50.866;4.398;2023-06-26T12:44:53;22.45;;;21.20;;
29236;SDS011;16266;50.866;4.398;2023-06-26T12:47:25;21.50;;;20.55;;
29236;SDS011;16266;50.866;4.398;2023-06-26T12:49:52;22.80;;;21.52;;
29236;SDS011;16266;50.866;4.398;2023-06-26T12:52:18;20.23;;;19.33;;
29236;SDS011;16266;50.866;4.398;2023-06-26T12:54:45;19.55;;;18.63;;
29236;SDS011;16266;50.866;4.398;2023-06-26T12:57:12;20.60;;;19.65;;
29236;SDS011;16266;50.866;4.398;2023-06-26T12:59:39;24.92;;;23.63;;
29236;SDS011;16266;50.866;4.398;2023-06-26T13:02:05;24.05;;;23.02;;
29236;SDS011;16266;50.866;4.398;2023-06-26T13:04:31;22.27;;;21.38;;
29236;SDS011;16266;50.866;4.398;2023-06-26T13:06:57;20.13;;;19.33;;
29236;SDS011;16266;50.866;4.398;2023-06-26T13:09:23;25.30;;;22.85;;
29236;SDS011;16266;50.866;4.398;2023-06-26T13:11:53;21.63;;;20.27;;
29236;SDS011;16266;50.866;4.398;2023-06-26T13:14:19;19.27;;;18.52;;
29236;SDS011;16266;50.866;4.398;2023-06-26T13:16:46;20.52;;;19.73;;
29236;SDS011;16266;50.866;4.398;2023-06-26T13:19:12;24.17;;;22.52;;
29236;SDS011;16266;50.866;4.398;2023-06-26T13:21:38;23.90;;;22.48;;
29236;SDS011;16266;50.866;4.398;2023-06-26T13:24:04;23.00;;;22.15;;
29236;SDS011;16266;50.866;4.398;2023-06-26T13:26:30;20.80;;;20.10;;
29236;SDS011;16266;50.866;4.398;2023-06-26T13:28:56;21.67;;;20.70;;
29236;SDS011;16266;50.866;4.398;2023-06-26T13:31:23;24.90;;;23.55;;
29236;SDS011;16266;50.866;4.398;2023-06-26T13:33:49;23.30;;;22.27;;
29236;SDS011;16266;50.866;4.398;2023-06-26T13:36:16;24.13;;;22.98;;
29236;SDS011;16266;50.866;4.398;2023-06-26T13:38:41;21.50;;;20.70;;
29236;SDS011;16266;50.866;4.398;2023-06-26T13:41:07;25.27;;;23.70;;
29236;SDS011;16266;50.866;4.398;2023-06-26T13:43:33;26.27;;;24.83;;
29236;SDS011;16266;50.866;4.398;2023-06-26T13:45:58;24.55;;;23.58;;
29236;SDS011;16266;50.866;4.398;2023-06-26T13:48:25;22.33;;;21.30;;
29236;SDS011;16266;50.866;4.398;2023-06-26T13:50:51;23.52;;;22.55;;
29236;SDS011;16266;50.866;4.398;2023-06-26T13:53:18;25.73;;;24.38;;
29236;SDS011;16266;50.866;4.398;2023-06-26T13:55:44;23.02;;;21.80;;
29236;SDS011;16266;50.866;4.398;2023-06-26T13:58:10;24.02;;;23.13;;
29236;SDS011;16266;50.866;4.398;2023-06-26T14:00:36;23.25;;;22.15;;
29236;SDS011;16266;50.866;4.398;2023-06-26T14:03:03;24.38;;;23.27;;
29236;SDS011;16266;50.866;4.398;2023-06-26T14:05:38;25.15;;;23.45;;
29236;SDS011;16266;50.866;4.398;2023-06-26T14:08:04;23.75;;;22.30;;
29236;SDS011;16266;50.866;4.398;2023-06-26T14:10:33;23.38;;;22.13;;
29236;SDS011;16266;50.866;4.398;2023-06-26T14:12:59;25.35;;;23.77;;
29236;SDS011;16266;50.866;4.398;2023-06-26T14:15:25;22.58;;;21.73;;
29236;SDS011;16266;50.866;4.398;2023-06-26T14:17:51;22.75;;;21.55;;
29236;SDS011;16266;50.866;4.398;2023-06-26T14:20:17;28.75;;;26.15;;
29236;SDS011;16266;50.866;4.398;2023-06-26T14:22:46;24.77;;;23.63;;
29236;SDS011;16266;50.866;4.398;2023-06-26T14:25:11;26.20;;;24.42;;
29236;SDS011;16266;50.866;4.398;2023-06-26T14:27:38;26.45;;;25.35;;
29236;SDS011;16266;50.866;4.398;2023-06-26T14:30:04;23.42;;;22.60;;
29236;SDS011;16266;50.866;4.398;2023-06-26T14:32:30;27.25;;;25.17;;
29236;SDS011;16266;50.866;4.398;2023-06-26T14:34:56;25.67;;;23.98;;
29236;SDS011;16266;50.866;4.398;2023-06-26T14:37:23;24.65;;;23.65;;